sensor_id;sensor_type;location;lat;lon;timestamp;P1;durP1;ratioP1;P2;durP2;ratioP2
30185;SDS011;31152;49.190;8.122;2023-04-03T00:01:18;3.78;;;1.63;;
30185;SDS011;31152;49.190;8.122;2023-04-03T00:03:45;3.58;;;1.65;;
30185;SDS011;31152;49.190;8.122;2023-04-03T00:06:12;2.28;;;1.40;;
30185;SDS011;31152;49.190;8.122;2023-04-03T00:08:42;4.20;;;1.60;;
30185;SDS011;31152;49.190;8.122;2023-04-03T00:11:09;3.00;;;1.98;;
30185;SDS011;31152;49.190;8.122;2023-04-03T00:13:39;3.35;;;1.88;;
30185;SDS011;31152;49.190;8.122;2023-04-03T00:16:06;4.05;;;1.73;;
30185;SDS011;31152;49.190;8.122;2023-04-03T00:18:34;2.88;;;1.58;;
30185;SDS011;31152;49.190;8.122;2023-04-03T00:21:01;2.70;;;1.63;;
30185;SDS011;31152;49.190;8.122;2023-04-03T00:23:28;4.32;;;2.22;;
30185;SDS011;31152;49.190;8.122;2023-04-03T00:25:55;2.58;;;1.45;;
30185;SDS011;31152;49.190;8.122;2023-04-03T00:28:22;3.03;;;1.50;;
30185;SDS011;31152;49.190;8.122;2023-04-03T00:30:49;2.67;;;1.52;;
30185;SDS011;31152;49.190;8.122;2023-04-03T00:33:16;5.35;;;1.85;;
30185;SDS011;31152;49.190;8.122;2023-04-03T00:35:43;3.78;;;1.75;;
30185;SDS011;31152;49.190;8.122;2023-04-03T00:38:10;6.22;;;1.52;;
30185;SDS011;31152;49.190;8.122;2023-04-03T00:40:38;5.32;;;1.80;;
30185;SDS011;31152;49.190;8.122;2023-04-03T00:43:12;3.60;;;1.67;;
30185;SDS011;31152;49.190;8.122;2023-04-03T00:45:47;3.10;;;1.58;;
30185;SDS011;31152;49.190;8.122;2023-04-03T00:48:58;4.40;;;1.67;;
30185;SDS011;31152;49.190;8.122;2023-04-03T00:51:13;4.38;;;1.45;;
30185;SDS011;31152;49.190;8.122;2023-04-03T00:53:47;3.92;;;1.52;;
30185;SDS011;31152;49.190;8.122;2023-04-03T00:56:21;4.72;;;2.08;;
30185;SDS011;31152;49.190;8.122;2023-04-03T00:58:57;7.60;;;1.77;;
30185;SDS011;31152;49.190;8.122;2023-04-03T01:01:27;5.80;;;1.80;;
30185;SDS011;31152;49.190;8.122;2023-04-03T01:03:54;4.40;;;1.67;;
30185;SDS011;31152;49.190;8.122;2023-04-03T01:06:24;3.55;;;1.52;;
30185;SDS011;31152;49.190;8.122;2023-04-03T01:08:54;4.85;;;2.00;;
30185;SDS011;31152;49.190;8.122;2023-04-03T01:11:21;4.38;;;1.92;;
30185;SDS011;31152;49.190;8.122;2023-04-03T01:13:48;3.75;;;1.50;;
30185;SDS011;31152;49.190;8.122;2023-04-03T01:16:15;6.97;;;1.70;;
30185;SDS011;31152;49.190;8.122;2023-04-03T01:18:42;7.20;;;3.00;;
30185;SDS011;31152;49.190;8.122;2023-04-03T01:24:18;4.03;;;1.85;;
30185;SDS011;31152;49.190;8.122;2023-04-03T01:26:50;4.43;;;1.60;;
30185;SDS011;31152;49.190;8.122;2023-04-03T01:29:17;5.65;;;1.67;;
30185;SDS011;31152;49.190;8.122;2023-04-03T01:31:51;5.03;;;1.70;;
30185;SDS011;31152;49.190;8.122;2023-04-03T01:34:28;1.90;;;1.40;;
30185;SDS011;31152;49.190;8.122;2023-04-03T01:36:55;4.65;;;1.90;;
30185;SDS011;31152;49.190;8.122;2023-04-03T01:39:22;4.60;;;1.88;;
30185;SDS011;31152;49.190;8.122;2023-04-03T01:41:49;4.20;;;1.65;;
30185;SDS011;31152;49.190;8.122;2023-04-03T01:44:16;3.00;;;1.70;;
30185;SDS011;31152;49.190;8.122;2023-04-03T01:46:43;3.72;;;1.60;;
30185;SDS011;31152;49.190;8.122;2023-04-03T01:49:10;4.65;;;1.88;;
30185;SDS011;31152;49.190;8.122;2023-04-03T01:51:37;5.57;;;1.67;;
30185;SDS011;31152;49.190;8.122;2023-04-03T01:54:03;4.78;;;1.85;;
30185;SDS011;31152;49.190;8.122;2023-04-03T01:56:35;4.60;;;1.83;;
30185;SDS011;31152;49.190;8.122;2023-04-03T01:59:02;4.30;;;1.60;;
30185;SDS011;31152;49.190;8.122;2023-04-03T02:01:31;8.30;;;1.95;;
30185;SDS011;31152;49.190;8.122;2023-04-03T02:03:58;2.83;;;1.60;;
30185;SDS011;31152;49.190;8.122;2023-04-03T02:06:26;3.35;;;1.63;;
30185;SDS011;31152;49.190;8.122;2023-04-03T02:08:53;6.32;;;1.25;;
30185;SDS011;31152;49.190;8.122;2023-04-03T02:11:20;4.95;;;1.80;;
30185;SDS011;31152;49.190;8.122;2023-04-03T02:13:47;6.45;;;1.90;;
30185;SDS011;31152;49.190;8.122;2023-04-03T02:16:13;8.48;;;1.95;;
30185;SDS011;31152;49.190;8.122;2023-04-03T02:18:43;5.72;;;2.00;;
30185;SDS011;31152;49.190;8.122;2023-04-03T02:21:10;3.85;;;1.63;;
30185;SDS011;31152;49.190;8.122;2023-04-03T02:23:38;3.83;;;1.88;;
30185;SDS011;31152;49.190;8.122;2023-04-03T02:26:06;3.58;;;1.70;;
30185;SDS011;31152;49.190;8.122;2023-04-03T02:28:37;5.63;;;1.80;;
30185;SDS011;31152;49.190;8.122;2023-04-03T02:31:05;7.10;;;1.83;;
30185;SDS011;31152;49.190;8.122;2023-04-03T02:33:35;3.13;;;1.75;;
30185;SDS011;31152;49.190;8.122;2023-04-03T02:36:05;5.07;;;1.70;;
30185;SDS011;31152;49.190;8.122;2023-04-03T02:38:33;4.43;;;1.65;;
30185;SDS011;31152;49.190;8.122;2023-04-03T02:41:05;6.20;;;1.67;;
30185;SDS011;31152;49.190;8.122;2023-04-03T02:43:33;3.22;;;1.65;;
30185;SDS011;31152;49.190;8.122;2023-04-03T02:46:02;6.32;;;1.80;;
30185;SDS011;31152;49.190;8.122;2023-04-03T02:48:29;4.43;;;1.77;;
30185;SDS011;31152;49.190;8.122;2023-04-03T02:50:56;6.45;;;2.33;;
30185;SDS011;31152;49.190;8.122;2023-04-03T02:53:27;3.28;;;1.83;;
30185;SDS011;31152;49.190;8.122;2023-04-03T02:55:53;5.28;;;2.28;;
30185;SDS011;31152;49.190;8.122;2023-04-03T02:58:20;7.78;;;2.30;;
30185;SDS011;31152;49.190;8.122;2023-04-03T03:00:47;4.00;;;2.17;;
30185;SDS011;31152;49.190;8.122;2023-04-03T03:03:16;4.95;;;2.30;;
30185;SDS011;31152;49.190;8.122;2023-04-03T03:05:45;6.55;;;2.33;;
30185;SDS011;31152;49.190;8.122;2023-04-03T03:08:14;6.18;;;2.33;;
30185;SDS011;31152;49.190;8.122;2023-04-03T03:10:41;6.47;;;2.47;;
30185;SDS011;31152;49.190;8.122;2023-04-03T03:13:07;5.43;;;2.60;;
30185;SDS011;31152;49.190;8.122;2023-04-03T03:15:34;6.07;;;2.40;;
30185;SDS011;31152;49.190;8.122;2023-04-03T03:18:01;5.72;;;2.50;;
30185;SDS011;31152;49.190;8.122;2023-04-03T03:20:28;3.10;;;2.35;;
30185;SDS011;31152;49.190;8.122;2023-04-03T03:22:54;9.15;;;2.30;;
30185;SDS011;31152;49.190;8.122;2023-04-03T03:25:21;8.88;;;2.63;;
30185;SDS011;31152;49.190;8.122;2023-04-03T03:27:48;5.15;;;2.50;;
30185;SDS011;31152;49.190;8.122;2023-04-03T03:30:15;6.53;;;2.72;;
30185;SDS011;31152;49.190;8.122;2023-04-03T03:32:42;6.00;;;3.22;;
30185;SDS011;31152;49.190;8.122;2023-04-03T03:35:09;4.45;;;2.72;;
30185;SDS011;31152;49.190;8.122;2023-04-03T03:37:36;7.28;;;2.38;;
30185;SDS011;31152;49.190;8.122;2023-04-03T03:40:03;5.65;;;2.10;;
30185;SDS011;31152;49.190;8.122;2023-04-03T03:42:30;5.20;;;2.60;;
30185;SDS011;31152;49.190;8.122;2023-04-03T03:44:57;10.20;;;2.90;;
30185;SDS011;31152;49.190;8.122;2023-04-03T03:47:23;4.25;;;2.47;;
30185;SDS011;31152;49.190;8.122;2023-04-03T03:49:52;7.50;;;2.72;;
30185;SDS011;31152;49.190;8.122;2023-04-03T03:52:19;6.30;;;2.92;;
30185;SDS011;31152;49.190;8.122;2023-04-03T03:54:46;5.80;;;2.75;;
30185;SDS011;31152;49.190;8.122;2023-04-03T03:57:15;4.57;;;2.58;;
30185;SDS011;31152;49.190;8.122;2023-04-03T03:59:42;5.45;;;2.55;;
30185;SDS011;31152;49.190;8.122;2023-04-03T04:02:10;6.68;;;2.63;;
30185;SDS011;31152;49.190;8.122;2023-04-03T04:04:37;5.93;;;2.30;;
30185;SDS011;31152;49.190;8.122;2023-04-03T04:07:04;5.13;;;2.30;;
30185;SDS011;31152;49.190;8.122;2023-04-03T04:09:33;4.75;;;2.13;;
30185;SDS011;31152;49.190;8.122;2023-04-03T04:12:02;5.50;;;2.60;;
30185;SDS011;31152;49.190;8.122;2023-04-03T04:14:29;4.32;;;2.38;;
30185;SDS011;31152;49.190;8.122;2023-04-03T04:16:55;6.13;;;2.60;;
30185;SDS011;31152;49.190;8.122;2023-04-03T04:19:22;4.18;;;2.40;;
30185;SDS011;31152;49.190;8.122;2023-04-03T04:21:51;8.82;;;2.55;;
30185;SDS011;31152;49.190;8.122;2023-04-03T04:24:18;6.38;;;2.42;;
30185;SDS011;31152;49.190;8.122;2023-04-03T04:26:45;6.15;;;2.75;;
30185;SDS011;31152;49.190;8.122;2023-04-03T04:29:12;6.50;;;2.70;;
30185;SDS011;31152;49.190;8.122;2023-04-03T04:31:38;6.40;;;2.50;;
30185;SDS011;31152;49.190;8.122;2023-04-03T04:34:05;3.30;;;2.20;;
30185;SDS011;31152;49.190;8.122;2023-04-03T04:36:32;7.22;;;2.80;;
30185;SDS011;31152;49.190;8.122;2023-04-03T04:38:59;5.50;;;2.58;;
30185;SDS011;31152;49.190;8.122;2023-04-03T04:41:28;6.55;;;2.20;;
30185;SDS011;31152;49.190;8.122;2023-04-03T04:43:55;8.10;;;2.88;;
30185;SDS011;31152;49.190;8.122;2023-04-03T04:46:22;7.70;;;2.78;;
30185;SDS011;31152;49.190;8.122;2023-04-03T04:48:49;4.50;;;2.13;;
30185;SDS011;31152;49.190;8.122;2023-04-03T04:51:16;5.45;;;2.40;;
30185;SDS011;31152;49.190;8.122;2023-04-03T04:53:44;8.02;;;2.70;;
30185;SDS011;31152;49.190;8.122;2023-04-03T04:56:11;6.88;;;2.58;;
30185;SDS011;31152;49.190;8.122;2023-04-03T04:58:38;7.47;;;2.60;;
30185;SDS011;31152;49.190;8.122;2023-04-03T05:01:06;6.13;;;2.67;;
30185;SDS011;31152;49.190;8.122;2023-04-03T05:03:34;5.30;;;2.72;;
30185;SDS011;31152;49.190;8.122;2023-04-03T05:06:02;4.00;;;2.20;;
30185;SDS011;31152;49.190;8.122;2023-04-03T05:08:29;8.93;;;2.92;;
30185;SDS011;31152;49.190;8.122;2023-04-03T05:10:57;6.47;;;2.58;;
30185;SDS011;31152;49.190;8.122;2023-04-03T05:13:24;5.97;;;3.05;;
30185;SDS011;31152;49.190;8.122;2023-04-03T05:15:51;5.00;;;2.42;;
30185;SDS011;31152;49.190;8.122;2023-04-03T05:18:17;5.25;;;2.45;;
30185;SDS011;31152;49.190;8.122;2023-04-03T05:20:48;7.25;;;3.05;;
30185;SDS011;31152;49.190;8.122;2023-04-03T05:23:16;8.50;;;3.08;;
30185;SDS011;31152;49.190;8.122;2023-04-03T05:25:43;5.97;;;2.60;;
30185;SDS011;31152;49.190;8.122;2023-04-03T05:28:11;5.80;;;2.97;;
30185;SDS011;31152;49.190;8.122;2023-04-03T05:30:38;8.20;;;2.40;;
30185;SDS011;31152;49.190;8.122;2023-04-03T05:33:04;5.45;;;2.88;;
30185;SDS011;31152;49.190;8.122;2023-04-03T05:35:32;7.65;;;2.78;;
30185;SDS011;31152;49.190;8.122;2023-04-03T05:38:01;6.75;;;2.97;;
30185;SDS011;31152;49.190;8.122;2023-04-03T05:40:28;5.65;;;2.80;;
30185;SDS011;31152;49.190;8.122;2023-04-03T05:42:55;4.85;;;2.88;;
30185;SDS011;31152;49.190;8.122;2023-04-03T05:45:21;8.68;;;2.55;;
30185;SDS011;31152;49.190;8.122;2023-04-03T05:47:48;11.38;;;3.05;;
30185;SDS011;31152;49.190;8.122;2023-04-03T05:50:17;6.60;;;2.72;;
30185;SDS011;31152;49.190;8.122;2023-04-03T05:52:46;8.65;;;2.95;;
30185;SDS011;31152;49.190;8.122;2023-04-03T05:55:15;6.15;;;3.10;;
30185;SDS011;31152;49.190;8.122;2023-04-03T05:57:42;9.43;;;2.80;;
30185;SDS011;31152;49.190;8.122;2023-04-03T06:00:11;7.93;;;3.20;;
30185;SDS011;31152;49.190;8.122;2023-04-03T06:02:40;5.22;;;2.72;;
30185;SDS011;31152;49.190;8.122;2023-04-03T06:05:08;6.43;;;2.72;;
30185;SDS011;31152;49.190;8.122;2023-04-03T06:07:37;5.97;;;2.83;;
30185;SDS011;31152;49.190;8.122;2023-04-03T06:10:05;7.90;;;2.95;;
30185;SDS011;31152;49.190;8.122;2023-04-03T06:12:34;7.78;;;2.95;;
30185;SDS011;31152;49.190;8.122;2023-04-03T06:15:02;5.65;;;2.67;;
30185;SDS011;31152;49.190;8.122;2023-04-03T06:17:29;5.85;;;2.45;;
30185;SDS011;31152;49.190;8.122;2023-04-03T06:19:56;9.40;;;2.90;;
30185;SDS011;31152;49.190;8.122;2023-04-03T06:22:24;6.03;;;2.75;;
30185;SDS011;31152;49.190;8.122;2023-04-03T06:24:56;9.25;;;3.40;;
30185;SDS011;31152;49.190;8.122;2023-04-03T06:27:24;5.28;;;2.67;;
30185;SDS011;31152;49.190;8.122;2023-04-03T06:29:50;11.43;;;2.70;;
30185;SDS011;31152;49.190;8.122;2023-04-03T06:32:17;6.63;;;2.63;;
30185;SDS011;31152;49.190;8.122;2023-04-03T06:34:44;5.28;;;2.45;;
30185;SDS011;31152;49.190;8.122;2023-04-03T06:37:17;8.75;;;2.97;;
30185;SDS011;31152;49.190;8.122;2023-04-03T06:39:47;7.72;;;3.00;;
30185;SDS011;31152;49.190;8.122;2023-04-03T06:42:14;5.85;;;2.65;;
30185;SDS011;31152;49.190;8.122;2023-04-03T06:44:40;5.57;;;2.67;;
30185;SDS011;31152;49.190;8.122;2023-04-03T06:47:09;3.83;;;2.40;;
30185;SDS011;31152;49.190;8.122;2023-04-03T06:49:42;7.50;;;2.30;;
30185;SDS011;31152;49.190;8.122;2023-04-03T06:52:11;8.48;;;2.60;;
30185;SDS011;31152;49.190;8.122;2023-04-03T06:54:38;4.75;;;2.53;;
30185;SDS011;31152;49.190;8.122;2023-04-03T06:57:06;7.65;;;2.40;;
30185;SDS011;31152;49.190;8.122;2023-04-03T06:59:33;4.60;;;2.50;;
30185;SDS011;31152;49.190;8.122;2023-04-03T07:02:03;6.50;;;2.55;;
30185;SDS011;31152;49.190;8.122;2023-04-03T07:04:30;5.32;;;2.50;;
30185;SDS011;31152;49.190;8.122;2023-04-03T07:06:57;5.05;;;2.20;;
30185;SDS011;31152;49.190;8.122;2023-04-03T07:09:24;8.32;;;2.33;;
30185;SDS011;31152;49.190;8.122;2023-04-03T07:11:51;12.30;;;2.35;;
30185;SDS011;31152;49.190;8.122;2023-04-03T07:14:20;7.88;;;2.22;;
30185;SDS011;31152;49.190;8.122;2023-04-03T07:16:47;6.35;;;2.30;;
30185;SDS011;31152;49.190;8.122;2023-04-03T07:19:14;6.25;;;2.60;;
30185;SDS011;31152;49.190;8.122;2023-04-03T07:21:40;7.30;;;3.10;;
30185;SDS011;31152;49.190;8.122;2023-04-03T07:24:09;7.07;;;2.85;;
30185;SDS011;31152;49.190;8.122;2023-04-03T07:26:42;7.35;;;3.10;;
30185;SDS011;31152;49.190;8.122;2023-04-03T07:29:09;7.35;;;2.95;;
30185;SDS011;31152;49.190;8.122;2023-04-03T07:31:38;5.45;;;2.40;;
30185;SDS011;31152;49.190;8.122;2023-04-03T07:34:10;8.95;;;3.08;;
30185;SDS011;31152;49.190;8.122;2023-04-03T07:36:37;7.40;;;3.10;;
30185;SDS011;31152;49.190;8.122;2023-04-03T07:39:04;9.18;;;3.08;;
30185;SDS011;31152;49.190;8.122;2023-04-03T07:41:38;7.90;;;2.80;;
30185;SDS011;31152;49.190;8.122;2023-04-03T07:44:05;5.55;;;2.72;;
30185;SDS011;31152;49.190;8.122;2023-04-03T07:46:32;6.25;;;2.50;;
30185;SDS011;31152;49.190;8.122;2023-04-03T07:48:58;5.13;;;3.13;;
30185;SDS011;31152;49.190;8.122;2023-04-03T07:51:25;4.75;;;2.83;;
30185;SDS011;31152;49.190;8.122;2023-04-03T07:53:57;6.72;;;2.33;;
30185;SDS011;31152;49.190;8.122;2023-04-03T07:56:24;7.45;;;2.90;;
30185;SDS011;31152;49.190;8.122;2023-04-03T07:58:53;7.47;;;2.63;;
30185;SDS011;31152;49.190;8.122;2023-04-03T08:01:20;5.65;;;2.17;;
30185;SDS011;31152;49.190;8.122;2023-04-03T08:03:47;7.95;;;3.08;;
30185;SDS011;31152;49.190;8.122;2023-04-03T08:06:17;5.18;;;2.05;;
30185;SDS011;31152;49.190;8.122;2023-04-03T08:08:54;5.53;;;2.05;;
30185;SDS011;31152;49.190;8.122;2023-04-03T08:11:22;6.40;;;2.40;;
30185;SDS011;31152;49.190;8.122;2023-04-03T08:13:52;7.57;;;1.90;;
30185;SDS011;31152;49.190;8.122;2023-04-03T08:16:20;5.82;;;1.90;;
30185;SDS011;31152;49.190;8.122;2023-04-03T08:18:56;5.13;;;2.40;;
30185;SDS011;31152;49.190;8.122;2023-04-03T08:21:22;8.02;;;1.95;;
30185;SDS011;31152;49.190;8.122;2023-04-03T08:23:52;7.57;;;2.33;;
30185;SDS011;31152;49.190;8.122;2023-04-03T08:26:20;8.85;;;1.90;;
30185;SDS011;31152;49.190;8.122;2023-04-03T08:28:48;5.38;;;1.98;;
30185;SDS011;31152;49.190;8.122;2023-04-03T08:31:16;6.40;;;2.28;;
30185;SDS011;31152;49.190;8.122;2023-04-03T08:33:45;6.03;;;2.10;;
30185;SDS011;31152;49.190;8.122;2023-04-03T08:36:16;8.90;;;2.35;;
30185;SDS011;31152;49.190;8.122;2023-04-03T08:38:52;5.40;;;2.15;;
30185;SDS011;31152;49.190;8.122;2023-04-03T08:52:19;5.95;;;1.95;;
30185;SDS011;31152;49.190;8.122;2023-04-03T08:54:53;8.88;;;2.00;;
30185;SDS011;31152;49.190;8.122;2023-04-03T08:57:44;4.93;;;1.38;;
30185;SDS011;31152;49.190;8.122;2023-04-03T09:00:18;2.50;;;1.30;;
30185;SDS011;31152;49.190;8.122;2023-04-03T09:02:51;4.78;;;1.50;;
30185;SDS011;31152;49.190;8.122;2023-04-03T09:05:42;4.10;;;1.20;;
30185;SDS011;31152;49.190;8.122;2023-04-03T09:08:59;6.68;;;1.60;;
30185;SDS011;31152;49.190;8.122;2023-04-03T09:11:21;7.68;;;1.90;;
30185;SDS011;31152;49.190;8.122;2023-04-03T09:19:20;3.55;;;1.42;;
30185;SDS011;31152;49.190;8.122;2023-04-03T09:22:21;4.85;;;1.35;;
30185;SDS011;31152;49.190;8.122;2023-04-03T09:25:36;7.40;;;2.10;;
30185;SDS011;31152;49.190;8.122;2023-04-03T09:27:56;6.63;;;1.20;;
30185;SDS011;31152;49.190;8.122;2023-04-03T09:30:24;3.58;;;1.42;;
30185;SDS011;31152;49.190;8.122;2023-04-03T09:32:53;4.30;;;1.42;;
30185;SDS011;31152;49.190;8.122;2023-04-03T09:35:25;4.18;;;1.10;;
30185;SDS011;31152;49.190;8.122;2023-04-03T09:40:42;3.88;;;1.77;;
30185;SDS011;31152;49.190;8.122;2023-04-03T09:43:23;2.95;;;1.10;;
30185;SDS011;31152;49.190;8.122;2023-04-03T09:46:15;3.90;;;1.55;;
30185;SDS011;31152;49.190;8.122;2023-04-03T09:48:50;3.42;;;1.30;;
30185;SDS011;31152;49.190;8.122;2023-04-03T09:51:33;3.22;;;1.25;;
30185;SDS011;31152;49.190;8.122;2023-04-03T09:54:00;2.38;;;0.90;;
30185;SDS011;31152;49.190;8.122;2023-04-03T09:56:57;3.03;;;1.02;;
30185;SDS011;31152;49.190;8.122;2023-04-03T09:59:30;2.58;;;1.17;;
30185;SDS011;31152;49.190;8.122;2023-04-03T10:01:59;6.72;;;1.65;;
30185;SDS011;31152;49.190;8.122;2023-04-03T10:04:42;3.75;;;1.00;;
30185;SDS011;31152;49.190;8.122;2023-04-03T10:10:26;2.65;;;1.20;;
30185;SDS011;31152;49.190;8.122;2023-04-03T10:13:06;5.75;;;1.50;;
30185;SDS011;31152;49.190;8.122;2023-04-03T10:15:50;3.95;;;1.52;;
30185;SDS011;31152;49.190;8.122;2023-04-03T10:20:54;4.10;;;1.40;;
30185;SDS011;31152;49.190;8.122;2023-04-03T10:24:14;5.40;;;1.35;;
30185;SDS011;31152;49.190;8.122;2023-04-03T10:27:13;5.50;;;1.38;;
30185;SDS011;31152;49.190;8.122;2023-04-03T10:46:52;3.95;;;1.30;;
30185;SDS011;31152;49.190;8.122;2023-04-03T10:52:47;4.93;;;1.20;;
30185;SDS011;31152;49.190;8.122;2023-04-03T10:57:50;3.92;;;1.40;;
30185;SDS011;31152;49.190;8.122;2023-04-03T11:00:34;7.30;;;1.17;;
30185;SDS011;31152;49.190;8.122;2023-04-03T11:03:06;7.80;;;0.90;;
30185;SDS011;31152;49.190;8.122;2023-04-03T11:05:54;3.92;;;1.20;;
30185;SDS011;31152;49.190;8.122;2023-04-03T11:10:53;6.35;;;1.27;;
30185;SDS011;31152;49.190;8.122;2023-04-03T11:16:08;3.75;;;1.30;;
30185;SDS011;31152;49.190;8.122;2023-04-03T11:18:42;9.48;;;1.38;;
30185;SDS011;31152;49.190;8.122;2023-04-03T11:24:31;7.50;;;1.20;;
30185;SDS011;31152;49.190;8.122;2023-04-03T11:26:59;6.25;;;1.45;;
30185;SDS011;31152;49.190;8.122;2023-04-03T11:29:32;4.18;;;1.10;;
30185;SDS011;31152;49.190;8.122;2023-04-03T11:34:54;3.28;;;1.05;;
30185;SDS011;31152;49.190;8.122;2023-04-03T11:37:31;4.55;;;1.90;;
30185;SDS011;31152;49.190;8.122;2023-04-03T11:42:36;5.28;;;1.48;;
30185;SDS011;31152;49.190;8.122;2023-04-03T11:45:24;4.15;;;1.35;;
30185;SDS011;31152;49.190;8.122;2023-04-03T11:47:58;4.15;;;1.40;;
30185;SDS011;31152;49.190;8.122;2023-04-03T11:50:50;4.95;;;1.30;;
30185;SDS011;31152;49.190;8.122;2023-04-03T11:53:25;3.65;;;1.23;;
30185;SDS011;31152;49.190;8.122;2023-04-03T11:56:03;2.72;;;1.02;;
30185;SDS011;31152;49.190;8.122;2023-04-03T11:59:14;4.43;;;1.23;;
30185;SDS011;31152;49.190;8.122;2023-04-03T12:04:14;4.78;;;1.63;;
30185;SDS011;31152;49.190;8.122;2023-04-03T12:06:49;4.38;;;1.20;;
30185;SDS011;31152;49.190;8.122;2023-04-03T12:11:54;4.82;;;1.75;;
30185;SDS011;31152;49.190;8.122;2023-04-03T12:14:23;3.78;;;1.30;;
30185;SDS011;31152;49.190;8.122;2023-04-03T12:16:52;4.22;;;1.38;;
30185;SDS011;31152;49.190;8.122;2023-04-03T12:19:31;3.45;;;1.10;;
30185;SDS011;31152;49.190;8.122;2023-04-03T12:22:04;8.48;;;1.35;;
30185;SDS011;31152;49.190;8.122;2023-04-03T12:24:34;4.80;;;1.40;;
30185;SDS011;31152;49.190;8.122;2023-04-03T12:27:25;3.00;;;1.05;;
30185;SDS011;31152;49.190;8.122;2023-04-03T12:35:39;4.80;;;1.42;;
30185;SDS011;31152;49.190;8.122;2023-04-03T12:41:23;4.70;;;1.25;;
30185;SDS011;31152;49.190;8.122;2023-04-03T12:44:08;4.82;;;1.40;;
30185;SDS011;31152;49.190;8.122;2023-04-03T12:47:08;6.40;;;1.67;;
30185;SDS011;31152;49.190;8.122;2023-04-03T12:49:49;3.78;;;1.10;;
30185;SDS011;31152;49.190;8.122;2023-04-03T12:52:35;3.53;;;1.20;;
30185;SDS011;31152;49.190;8.122;2023-04-03T12:55:12;3.22;;;1.30;;
30185;SDS011;31152;49.190;8.122;2023-04-03T12:57:41;3.75;;;1.30;;
30185;SDS011;31152;49.190;8.122;2023-04-03T13:03:01;7.05;;;1.35;;
30185;SDS011;31152;49.190;8.122;2023-04-03T13:05:32;7.20;;;1.50;;
30185;SDS011;31152;49.190;8.122;2023-04-03T13:08:09;5.13;;;1.08;;
30185;SDS011;31152;49.190;8.122;2023-04-03T13:10:43;2.47;;;1.33;;
30185;SDS011;31152;49.190;8.122;2023-04-03T13:13:20;3.25;;;1.30;;
30185;SDS011;31152;49.190;8.122;2023-04-03T13:15:49;8.00;;;1.25;;
30185;SDS011;31152;49.190;8.122;2023-04-03T13:20:57;3.92;;;1.20;;
30185;SDS011;31152;49.190;8.122;2023-04-03T13:23:28;4.13;;;1.35;;
30185;SDS011;31152;49.190;8.122;2023-04-03T13:25:56;5.00;;;1.25;;
30185;SDS011;31152;49.190;8.122;2023-04-03T13:28:27;2.47;;;1.17;;
30185;SDS011;31152;49.190;8.122;2023-04-03T13:30:55;7.75;;;1.63;;
30185;SDS011;31152;49.190;8.122;2023-04-03T13:33:39;6.57;;;1.45;;
30185;SDS011;31152;49.190;8.122;2023-04-03T13:39:06;4.00;;;1.20;;
30185;SDS011;31152;49.190;8.122;2023-04-03T13:41:40;5.75;;;1.17;;
30185;SDS011;31152;49.190;8.122;2023-04-03T13:44:26;2.65;;;1.17;;
30185;SDS011;31152;49.190;8.122;2023-04-03T13:46:55;3.00;;;1.48;;
30185;SDS011;31152;49.190;8.122;2023-04-03T13:49:35;4.00;;;1.40;;
30185;SDS011;31152;49.190;8.122;2023-04-03T13:52:21;3.70;;;1.45;;
30185;SDS011;31152;49.190;8.122;2023-04-03T13:57:55;10.13;;;1.50;;
30185;SDS011;31152;49.190;8.122;2023-04-03T14:03:00;4.70;;;1.60;;
30185;SDS011;31152;49.190;8.122;2023-04-03T14:05:27;4.43;;;1.35;;
30185;SDS011;31152;49.190;8.122;2023-04-03T14:07:57;4.07;;;1.15;;
30185;SDS011;31152;49.190;8.122;2023-04-03T14:10:25;4.85;;;1.55;;
30185;SDS011;31152;49.190;8.122;2023-04-03T14:12:51;3.03;;;1.05;;
30185;SDS011;31152;49.190;8.122;2023-04-03T14:15:20;3.28;;;1.23;;
30185;SDS011;31152;49.190;8.122;2023-04-03T14:17:49;4.65;;;0.90;;
30185;SDS011;31152;49.190;8.122;2023-04-03T14:20:19;3.28;;;1.30;;
30185;SDS011;31152;49.190;8.122;2023-04-03T14:22:48;3.20;;;1.40;;
30185;SDS011;31152;49.190;8.122;2023-04-03T14:25:15;6.38;;;1.50;;
30185;SDS011;31152;49.190;8.122;2023-04-03T14:27:43;5.20;;;1.30;;
30185;SDS011;31152;49.190;8.122;2023-04-03T14:30:17;4.22;;;1.48;;
30185;SDS011;31152;49.190;8.122;2023-04-03T14:32:49;2.72;;;1.20;;
30185;SDS011;31152;49.190;8.122;2023-04-03T14:35:17;2.97;;;1.30;;
30185;SDS011;31152;49.190;8.122;2023-04-03T14:37:47;3.47;;;1.00;;
30185;SDS011;31152;49.190;8.122;2023-04-03T14:40:16;6.70;;;1.42;;
30185;SDS011;31152;49.190;8.122;2023-04-03T14:42:48;1.70;;;1.03;;
30185;SDS011;31152;49.190;8.122;2023-04-03T14:45:15;3.53;;;1.30;;
30185;SDS011;31152;49.190;8.122;2023-04-03T14:47:44;2.95;;;1.30;;
30185;SDS011;31152;49.190;8.122;2023-04-03T14:50:15;3.30;;;1.73;;
30185;SDS011;31152;49.190;8.122;2023-04-03T14:52:47;2.20;;;1.10;;
30185;SDS011;31152;49.190;8.122;2023-04-03T14:55:16;3.80;;;1.40;;
30185;SDS011;31152;49.190;8.122;2023-04-03T14:57:44;6.53;;;1.63;;
30185;SDS011;31152;49.190;8.122;2023-04-03T15:00:15;6.10;;;1.35;;
30185;SDS011;31152;49.190;8.122;2023-04-03T15:02:44;3.30;;;1.38;;
30185;SDS011;31152;49.190;8.122;2023-04-03T15:05:13;13.50;;;7.75;;
30185;SDS011;31152;49.190;8.122;2023-04-03T15:07:47;2.72;;;1.63;;
30185;SDS011;31152;49.190;8.122;2023-04-03T15:10:23;4.03;;;1.20;;
30185;SDS011;31152;49.190;8.122;2023-04-03T15:12:53;5.38;;;1.33;;
30185;SDS011;31152;49.190;8.122;2023-04-03T15:15:22;5.95;;;1.58;;
30185;SDS011;31152;49.190;8.122;2023-04-03T15:17:51;5.32;;;1.40;;
30185;SDS011;31152;49.190;8.122;2023-04-03T15:20:22;6.22;;;1.70;;
30185;SDS011;31152;49.190;8.122;2023-04-03T15:22:54;4.97;;;1.30;;
30185;SDS011;31152;49.190;8.122;2023-04-03T15:25:23;5.25;;;1.52;;
30185;SDS011;31152;49.190;8.122;2023-04-03T15:27:52;4.13;;;1.30;;
30185;SDS011;31152;49.190;8.122;2023-04-03T15:30:20;2.75;;;1.33;;
30185;SDS011;31152;49.190;8.122;2023-04-03T15:32:48;3.42;;;1.40;;
30185;SDS011;31152;49.190;8.122;2023-04-03T15:35:15;3.10;;;1.33;;
30185;SDS011;31152;49.190;8.122;2023-04-03T15:37:43;3.92;;;1.55;;
30185;SDS011;31152;49.190;8.122;2023-04-03T15:40:10;2.78;;;1.50;;
30185;SDS011;31152;49.190;8.122;2023-04-03T15:42:39;7.50;;;1.50;;
30185;SDS011;31152;49.190;8.122;2023-04-03T15:45:07;3.17;;;1.55;;
30185;SDS011;31152;49.190;8.122;2023-04-03T15:47:34;4.05;;;1.40;;
30185;SDS011;31152;49.190;8.122;2023-04-03T15:50:07;7.22;;;1.20;;
30185;SDS011;31152;49.190;8.122;2023-04-03T15:52:34;3.45;;;1.60;;
30185;SDS011;31152;49.190;8.122;2023-04-03T15:55:02;4.97;;;2.30;;
30185;SDS011;31152;49.190;8.122;2023-04-03T15:57:30;2.53;;;1.33;;
30185;SDS011;31152;49.190;8.122;2023-04-03T16:00:02;3.95;;;1.73;;
30185;SDS011;31152;49.190;8.122;2023-04-03T16:02:29;2.97;;;1.30;;
30185;SDS011;31152;49.190;8.122;2023-04-03T16:04:59;6.20;;;1.50;;
30185;SDS011;31152;49.190;8.122;2023-04-03T16:07:26;5.93;;;1.40;;
30185;SDS011;31152;49.190;8.122;2023-04-03T16:09:53;3.40;;;1.40;;
30185;SDS011;31152;49.190;8.122;2023-04-03T16:12:20;3.47;;;2.00;;
30185;SDS011;31152;49.190;8.122;2023-04-03T16:14:48;3.33;;;1.85;;
30185;SDS011;31152;49.190;8.122;2023-04-03T16:17:15;3.50;;;1.70;;
30185;SDS011;31152;49.190;8.122;2023-04-03T16:19:44;4.07;;;1.90;;
30185;SDS011;31152;49.190;8.122;2023-04-03T16:22:11;3.95;;;1.50;;
30185;SDS011;31152;49.190;8.122;2023-04-03T16:24:38;3.38;;;1.65;;
30185;SDS011;31152;49.190;8.122;2023-04-03T16:27:06;4.85;;;1.85;;
30185;SDS011;31152;49.190;8.122;2023-04-03T16:29:32;3.08;;;1.70;;
30185;SDS011;31152;49.190;8.122;2023-04-03T16:32:02;5.22;;;1.90;;
30185;SDS011;31152;49.190;8.122;2023-04-03T16:34:29;3.20;;;1.73;;
30185;SDS011;31152;49.190;8.122;2023-04-03T16:36:59;3.28;;;1.60;;
30185;SDS011;31152;49.190;8.122;2023-04-03T16:39:31;2.75;;;1.38;;
30185;SDS011;31152;49.190;8.122;2023-04-03T16:42:00;6.28;;;2.13;;